P/v San Francisco — WDA3425 — position and weather

sailwx.info

Track history (hours):
 
Tides and Currents Weather Stations Pressure Air Temp Water Temp Dewpoint Dewpoint Depression Visibility Wind Speed Wind Dir Waves Ship Positions

P/v San Francisco

Owner: San Francisco Bar Pilots Benevolent and Protective, SAN FRANCISCO, CA. More information available from US FCC via Universal Licensing System and Coast Guard Vessel Documentation Center.

Last reported at 2018-Jan-22 14:00 UTC. Time now 2018-Jan-22 14:04 UTC.
Position N 37°46' W 122°40'.

Length 33 m.

Type: Pilot. MMSI: 366798310.

Date/timePositionNaut miles runAvg speedWind from/ knotsBaromVisibWave heightAir tempDewpointWater temp
2018-Jan-22 14:00N 37°46' W 122°40'0 0.8
2018-Jan-22 13:30N 37°46' W 122°40'2 4.0
2018-Jan-22 13:00N 37°44' W 122°40'1 2.1
2018-Jan-22 12:30N 37°46' W 122°41'1 2.8
2018-Jan-22 12:00N 37°47' W 122°39'2 3.0
2018-Jan-22 11:30N 37°46' W 122°41'2 4.0
2018-Jan-22 11:01N 37°44' W 122°41'1 1.4
2018-Jan-22 10:31N 37°45' W 122°41'1 1.4
2018-Jan-22 10:00N 37°44' W 122°41'0 1.0
2018-Jan-22 09:31N 37°44' W 122°41'1 1.4
2018-Jan-22 09:00N 37°44' W 122°40'1 1.4
2018-Jan-22 08:31N 37°45' W 122°40'1 1.6
2018-Jan-22 08:00N 37°45' W 122°40'1 1.7
2018-Jan-22 07:31N 37°46' W 122°40'1 2.0
2018-Jan-22 07:00N 37°46' W 122°39'1 2.4
2018-Jan-22 06:31N 37°47' W 122°40'1 2.5
2018-Jan-22 06:00N 37°48' W 122°42'1 2.5
2018-Jan-22 05:30N 37°47' W 122°40'1 2.2
2018-Jan-22 05:00N 37°47' W 122°39'1 2.2
2018-Jan-22 04:31N 37°46' W 122°40'1 1.2
2018-Jan-22 04:00N 37°46' W 122°41'2 3.6
2018-Jan-22 03:30N 37°44' W 122°41'1 1.0
2018-Jan-22 03:00N 37°45' W 122°41'1 1.8
2018-Jan-22 02:30N 37°45' W 122°40'1 1.2
2018-Jan-22 02:00N 37°45' W 122°41'1 1.8
2018-Jan-22 01:30N 37°46' W 122°41'1 1.7
2018-Jan-22 01:00N 37°45' W 122°40'0 0.8
2018-Jan-22 00:30N 37°45' W 122°40'0 0.7
2018-Jan-22 00:00N 37°45' W 122°40'1 2.4
2018-Jan-21 23:31N 37°45' W 122°42'2 3.1
2018-Jan-21 23:01N 37°46' W 122°41'1 1.6
2018-Jan-21 22:30N 37°47' W 122°40'0 0.3
2018-Jan-21 22:01N 37°47' W 122°40'1 1.1
2018-Jan-21 21:31N 37°47' W 122°41'0 0.6
2018-Jan-21 21:00N 37°47' W 122°41'1 2.1
2018-Jan-21 20:30N 37°47' W 122°39'0 0.7
2018-Jan-21 20:00N 37°46' W 122°39'1 2.4
2018-Jan-21 19:30N 37°46' W 122°40'1 1.0
2018-Jan-21 19:00N 37°47' W 122°41'2 3.6
2018-Jan-21 18:31N 37°45' W 122°41'1 3.0
2018-Jan-21 18:00N 37°43' W 122°41'1 2.4
2018-Jan-21 17:30N 37°44' W 122°41'1 2.9
2018-Jan-21 17:00N 37°46' W 122°40'1 2.7
2018-Jan-21 16:30N 37°46' W 122°42'0 0.4
2018-Jan-21 16:00N 37°46' W 122°42'2 3.2
2018-Jan-21 15:31N 37°46' W 122°40'4 8.0
2018-Jan-21 15:00N 37°47' W 122°35'4 8.1
2018-Jan-21 14:30N 37°46' W 122°40'2 3.9
2018-Jan-21 14:01N 37°44' W 122°40'2 3.9
2018-Jan-21 13:30N 37°46' W 122°41'1 1.6
2018-Jan-21 13:00N 37°46' W 122°40'1 2.1
2018-Jan-21 12:30N 37°45' W 122°39'1 1.5
2018-Jan-21 12:00N 37°45' W 122°40'1 2.2
2018-Jan-21 11:30N 37°46' W 122°39'0 0.9
2018-Jan-21 11:00N 37°46' W 122°39'0 0.7
2018-Jan-21 10:30N 37°45' W 122°40'0 0.4
2018-Jan-21 10:00N 37°45' W 122°40'1 2.8
2018-Jan-21 09:30N 37°45' W 122°41'1 2.2
2018-Jan-21 09:00N 37°46' W 122°43'1 1.4
2018-Jan-21 08:30N 37°46' W 122°42'1 1.6
2018-Jan-21 08:00N 37°45' W 122°41'1 1.7
2018-Jan-21 07:30N 37°45' W 122°40'1 1.8
2018-Jan-21 07:00N 37°45' W 122°39'0 0.3
2018-Jan-21 06:31N 37°45' W 122°39'1 1.5
2018-Jan-21 06:01N 37°44' W 122°40'1 2.1
2018-Jan-21 05:30N 37°44' W 122°41'1 2.8
2018-Jan-21 05:00N 37°44' W 122°39'2 3.3
2018-Jan-21 04:30N 37°45' W 122°41'1 1.4
2018-Jan-21 04:00N 37°46' W 122°41'0 0.7
2018-Jan-21 03:30N 37°45' W 122°41'1 1.4
2018-Jan-21 03:01N 37°46' W 122°41'1 1.3
2018-Jan-21 02:30N 37°46' W 122°41'0 0.2
2018-Jan-21 02:00N 37°46' W 122°41'1 2.7
2018-Jan-21 01:30N 37°46' W 122°42'3 5.0
2018-Jan-21 01:00N 37°44' W 122°40'2 3.0
2018-Jan-21 00:30N 37°46' W 122°39'0 0.8
2018-Jan-21 00:00N 37°46' W 122°40'2 3.2
2018-Jan-20 23:30N 37°46' W 122°42'1 2.3
2018-Jan-20 23:00N 37°45' W 122°42'1 1.6
2018-Jan-20 22:30N 37°45' W 122°41'1 1.7
2018-Jan-20 22:00N 37°45' W 122°40'0 0.5
2018-Jan-20 21:30N 37°45' W 122°40'1 1.3
2018-Jan-20 21:00N 37°45' W 122°39'3 6.3
2018-Jan-20 20:30N 37°47' W 122°35'611.3
2018-Jan-20 20:01N 37°49' W 122°29'4 8.1
2018-Jan-20 19:30N 37°48' W 122°24'0 0.0
2018-Jan-20 19:00N 37°48' W 122°24'0 0.0
2018-Jan-20 18:30N 37°48' W 122°24'0 0.0
2018-Jan-20 18:01N 37°48' W 122°24'0 0.0
2018-Jan-20 17:30N 37°48' W 122°24'0 0.0
2018-Jan-20 17:00N 37°48' W 122°24'0 0.0
2018-Jan-20 16:30N 37°48' W 122°24'0 0.0
2018-Jan-20 16:00N 37°48' W 122°24'0 0.0
2018-Jan-20 15:30N 37°48' W 122°24'0 0.0
2018-Jan-20 15:00N 37°48' W 122°24'0 0.0
2018-Jan-20 14:30N 37°48' W 122°24'0 0.0
2018-Jan-20 14:00N 37°48' W 122°24'0 0.0
2018-Jan-20 13:30N 37°48' W 122°24'0 0.0
2018-Jan-20 13:00N 37°48' W 122°24'0 0.0
2018-Jan-20 12:30N 37°48' W 122°24'0 0.0
2018-Jan-20 12:00N 37°48' W 122°24'0 0.0
2018-Jan-20 11:31N 37°48' W 122°24'0 0.0
2018-Jan-20 11:00N 37°48' W 122°24'0 0.0
2018-Jan-20 10:30N 37°48' W 122°24'0 0.0
2018-Jan-20 10:00N 37°48' W 122°24'0 0.0
2018-Jan-20 09:30N 37°48' W 122°24'0 0.0
2018-Jan-20 09:00N 37°48' W 122°24'0 0.0
2018-Jan-20 08:30N 37°48' W 122°24'0 0.0
2018-Jan-20 08:00N 37°48' W 122°24'0 0.0
2018-Jan-20 07:30N 37°48' W 122°24'0 0.0
2018-Jan-20 07:00N 37°48' W 122°24'0 0.0
2018-Jan-20 06:30N 37°48' W 122°24'0 0.0
2018-Jan-20 06:00N 37°48' W 122°24'0 0.0
2018-Jan-20 05:30N 37°48' W 122°24'0 0.0
2018-Jan-20 05:00N 37°48' W 122°24'0 0.0
2018-Jan-20 04:30N 37°48' W 122°24'0 0.0
2018-Jan-20 04:01N 37°48' W 122°24'0 0.0
2018-Jan-20 03:31N 37°48' W 122°24'0 0.0
2018-Jan-20 03:00N 37°48' W 122°24'0 0.0
2018-Jan-20 02:30N 37°48' W 122°24'0 0.0
2018-Jan-20 02:00N 37°48' W 122°24'0 0.0
2018-Jan-20 01:30N 37°48' W 122°24'0 0.0
2018-Jan-20 00:59N 37°48' W 122°24'0 0.0
2018-Jan-20 00:30N 37°48' W 122°24'0 0.0
2018-Jan-20 00:00N 37°48' W 122°24'0 0.0
2018-Jan-19 23:30N 37°48' W 122°24'0 0.0
2018-Jan-19 23:00N 37°48' W 122°24'0 0.0
2018-Jan-19 22:30N 37°48' W 122°24'0 0.0
2018-Jan-19 22:00N 37°48' W 122°24'0 0.0
2018-Jan-19 21:30N 37°48' W 122°24'0 0.0
2018-Jan-19 20:59N 37°48' W 122°24'0 0.0
2018-Jan-19 20:30N 37°48' W 122°24'0 0.0
2018-Jan-19 20:00N 37°48' W 122°24'0 0.0
2018-Jan-19 19:30N 37°48' W 122°24'0 0.0
2018-Jan-19 19:00N 37°48' W 122°24'0 0.0
2018-Jan-19 18:30N 37°48' W 122°24'0 0.0
2018-Jan-19 18:00N 37°48' W 122°24'0 0.0
2018-Jan-19 17:30N 37°48' W 122°24'0 0.0
2018-Jan-19 17:00N 37°48' W 122°24'0 0.0
2018-Jan-19 16:30N 37°48' W 122°24'0 0.0
2018-Jan-19 16:00N 37°48' W 122°24'0 0.0
2018-Jan-19 15:30N 37°48' W 122°24'0 0.0
2018-Jan-19 15:00N 37°48' W 122°24'0 0.0
2018-Jan-19 14:30N 37°48' W 122°24'0 0.0
2018-Jan-19 14:00N 37°48' W 122°24'0 0.0
2018-Jan-19 13:31N 37°48' W 122°24'0 0.0
2018-Jan-19 13:00N 37°48' W 122°24'0 0.0
2018-Jan-19 12:30N 37°48' W 122°24'0 0.0
2018-Jan-19 12:00N 37°48' W 122°24'0 0.0
2018-Jan-19 11:30N 37°48' W 122°24'0 0.0
2018-Jan-19 11:00N 37°48' W 122°24'0 0.0
2018-Jan-19 10:30N 37°48' W 122°24'0 0.0
2018-Jan-19 10:00N 37°48' W 122°24'0 0.0
2018-Jan-19 09:30N 37°48' W 122°24'0 0.0
2018-Jan-19 09:00N 37°48' W 122°24'0 0.0
2018-Jan-19 08:29N 37°48' W 122°24'0 0.0
2018-Jan-19 08:00N 37°48' W 122°24'0 0.0
2018-Jan-19 07:30N 37°48' W 122°24'0 0.0
2018-Jan-19 07:00N 37°48' W 122°24'0 0.0
2018-Jan-19 06:31N 37°48' W 122°24'0 0.0
2018-Jan-19 06:00N 37°48' W 122°24'0 0.0
2018-Jan-19 05:29N 37°48' W 122°24'0 0.0
2018-Jan-19 05:00N 37°48' W 122°24'0 0.0
2018-Jan-19 04:30N 37°48' W 122°24'0 0.0
2018-Jan-19 04:00N 37°48' W 122°24'0 0.0
2018-Jan-19 03:30N 37°48' W 122°24'0 0.2
2018-Jan-19 03:00N 37°48' W 122°24'0 0.2
2018-Jan-19 02:30N 37°48' W 122°24'0 0.0
2018-Jan-19 02:01N 37°48' W 122°24'0 0.0
2018-Jan-19 01:30N 37°48' W 122°24'0 0.0
2018-Jan-19 01:01N 37°48' W 122°24'0 0.0
2018-Jan-19 00:30N 37°48' W 122°24'0 0.0
2018-Jan-19 00:00N 37°48' W 122°24'0 0.0
2018-Jan-18 23:30N 37°48' W 122°24'0 0.0
2018-Jan-18 23:00N 37°48' W 122°24'0 0.0
2018-Jan-18 22:30N 37°48' W 122°24'0 0.0
2018-Jan-18 22:00N 37°48' W 122°24'0 0.0
2018-Jan-18 21:30N 37°48' W 122°24'0 0.0
2018-Jan-18 21:00N 37°48' W 122°24'0 0.0
2018-Jan-18 20:29N 37°48' W 122°24'0 0.0
2018-Jan-18 20:00N 37°48' W 122°24'0 0.0
2018-Jan-18 19:30N 37°48' W 122°24'0 0.0
2018-Jan-18 19:00N 37°48' W 122°24'0 0.0
2018-Jan-18 18:30N 37°48' W 122°24'0 0.0
2018-Jan-18 18:00N 37°48' W 122°24'0 0.0
2018-Jan-18 17:30N 37°48' W 122°24'0 0.0
2018-Jan-18 17:00N 37°48' W 122°24'0 0.0
2018-Jan-18 16:30N 37°48' W 122°24'0 0.0
2018-Jan-18 16:00N 37°48' W 122°24'0 0.0
2018-Jan-18 15:30N 37°48' W 122°24'0 0.0
2018-Jan-18 15:01N 37°48' W 122°24'0 0.0
2018-Jan-18 14:30N 37°48' W 122°24'0 0.0
2018-Jan-18 14:00N 37°48' W 122°24'0 0.0
2018-Jan-18 13:30N 37°48' W 122°24'0 0.0
2018-Jan-18 13:00N 37°48' W 122°24'0 0.0
2018-Jan-18 12:30N 37°48' W 122°24'0 0.0
2018-Jan-18 12:00N 37°48' W 122°24'0 0.0
2018-Jan-18 11:30N 37°48' W 122°24'0 0.0
2018-Jan-18 11:00N 37°48' W 122°24'0 0.0
2018-Jan-18 10:30N 37°48' W 122°24'0 0.0
2018-Jan-18 10:01N 37°48' W 122°24'0 0.0
2018-Jan-18 09:30N 37°48' W 122°24'0 0.0
2018-Jan-18 09:00N 37°48' W 122°24'0 0.0
2018-Jan-18 08:29N 37°48' W 122°24'0 0.0
2018-Jan-18 08:00N 37°48' W 122°24'0 0.0
2018-Jan-18 07:31N 37°48' W 122°24'0 0.0
2018-Jan-18 07:00N 37°48' W 122°24'0 0.0
2018-Jan-18 06:30N 37°48' W 122°24'0 0.0
2018-Jan-18 06:00N 37°48' W 122°24'0 0.0
2018-Jan-18 05:31N 37°48' W 122°24'0 0.0
2018-Jan-18 05:00N 37°48' W 122°24'0 0.0
2018-Jan-18 04:30N 37°48' W 122°24'0 0.0
2018-Jan-18 04:00N 37°48' W 122°24'0 0.0
2018-Jan-18 03:30N 37°48' W 122°24'0 0.0
2018-Jan-18 03:00N 37°48' W 122°24'0 0.0
2018-Jan-18 02:30N 37°48' W 122°24'0 0.0
2018-Jan-18 02:00N 37°48' W 122°24'0 0.0
2018-Jan-18 01:30N 37°48' W 122°24'0 0.0
2018-Jan-18 01:00N 37°48' W 122°24'0 0.0
2018-Jan-18 00:00N 37°48' W 122°24'0 0.0
2018-Jan-17 23:57N 37°48' W 122°24'  
2018-Jan-12 15:00N 37°46' W 122°40'1 1.7
2018-Jan-12 14:30N 37°47' W 122°41'0 0.2
2018-Jan-12 14:00N 37°47' W 122°41'  
Track history (hours):
 
Tides and Currents Weather Stations Pressure Air Temp Water Temp Dewpoint Dewpoint Depression Visibility Wind Speed Wind Dir Waves Ship Positions

P/v San Francisco

Owner: San Francisco Bar Pilots Benevolent and Protective, SAN FRANCISCO, CA. More information available from US FCC via Universal Licensing System and Coast Guard Vessel Documentation Center.

Last reported at 2018-Jan-22 14:00 UTC. Time now 2018-Jan-22 14:04 UTC.
Position N 37°46' W 122°40'.

Length 33 m.

Type: Pilot. MMSI: 366798310.

Date/timePositionNaut miles runAvg speedWind from/ knotsBaromVisibWave heightAir tempDewpointWater temp
2018-Jan-22 14:00N 37°46' W 122°40'0 0.8
2018-Jan-22 13:30N 37°46' W 122°40'2 4.0
2018-Jan-22 13:00N 37°44' W 122°40'1 2.1
2018-Jan-22 12:30N 37°46' W 122°41'1 2.8
2018-Jan-22 12:00N 37°47' W 122°39'2 3.0
2018-Jan-22 11:30N 37°46' W 122°41'2 4.0
2018-Jan-22 11:01N 37°44' W 122°41'1 1.4
2018-Jan-22 10:31N 37°45' W 122°41'1 1.4
2018-Jan-22 10:00N 37°44' W 122°41'0 1.0
2018-Jan-22 09:31N 37°44' W 122°41'1 1.4
2018-Jan-22 09:00N 37°44' W 122°40'1 1.4
2018-Jan-22 08:31N 37°45' W 122°40'1 1.6
2018-Jan-22 08:00N 37°45' W 122°40'1 1.7
2018-Jan-22 07:31N 37°46' W 122°40'1 2.0
2018-Jan-22 07:00N 37°46' W 122°39'1 2.4
2018-Jan-22 06:31N 37°47' W 122°40'1 2.5
2018-Jan-22 06:00N 37°48' W 122°42'1 2.5
2018-Jan-22 05:30N 37°47' W 122°40'1 2.2
2018-Jan-22 05:00N 37°47' W 122°39'1 2.2
2018-Jan-22 04:31N 37°46' W 122°40'1 1.2
2018-Jan-22 04:00N 37°46' W 122°41'2 3.6
2018-Jan-22 03:30N 37°44' W 122°41'1 1.0
2018-Jan-22 03:00N 37°45' W 122°41'1 1.8
2018-Jan-22 02:30N 37°45' W 122°40'1 1.2
2018-Jan-22 02:00N 37°45' W 122°41'1 1.8
2018-Jan-22 01:30N 37°46' W 122°41'1 1.7
2018-Jan-22 01:00N 37°45' W 122°40'0 0.8
2018-Jan-22 00:30N 37°45' W 122°40'0 0.7
2018-Jan-22 00:00N 37°45' W 122°40'1 2.4
2018-Jan-21 23:31N 37°45' W 122°42'2 3.1
2018-Jan-21 23:01N 37°46' W 122°41'1 1.6
2018-Jan-21 22:30N 37°47' W 122°40'0 0.3
2018-Jan-21 22:01N 37°47' W 122°40'1 1.1
2018-Jan-21 21:31N 37°47' W 122°41'0 0.6
2018-Jan-21 21:00N 37°47' W 122°41'1 2.1
2018-Jan-21 20:30N 37°47' W 122°39'0 0.7
2018-Jan-21 20:00N 37°46' W 122°39'1 2.4
2018-Jan-21 19:30N 37°46' W 122°40'1 1.0
2018-Jan-21 19:00N 37°47' W 122°41'2 3.6
2018-Jan-21 18:31N 37°45' W 122°41'1 3.0
2018-Jan-21 18:00N 37°43' W 122°41'1 2.4
2018-Jan-21 17:30N 37°44' W 122°41'1 2.9
2018-Jan-21 17:00N 37°46' W 122°40'1 2.7
2018-Jan-21 16:30N 37°46' W 122°42'0 0.4
2018-Jan-21 16:00N 37°46' W 122°42'2 3.2
2018-Jan-21 15:31N 37°46' W 122°40'4 8.0
2018-Jan-21 15:00N 37°47' W 122°35'4 8.1
2018-Jan-21 14:30N 37°46' W 122°40'2 3.9
2018-Jan-21 14:01N 37°44' W 122°40'2 3.9
2018-Jan-21 13:30N 37°46' W 122°41'1 1.6
2018-Jan-21 13:00N 37°46' W 122°40'1 2.1
2018-Jan-21 12:30N 37°45' W 122°39'1 1.5
2018-Jan-21 12:00N 37°45' W 122°40'1 2.2
2018-Jan-21 11:30N 37°46' W 122°39'0 0.9
2018-Jan-21 11:00N 37°46' W 122°39'0 0.7
2018-Jan-21 10:30N 37°45' W 122°40'0 0.4
2018-Jan-21 10:00N 37°45' W 122°40'1 2.8
2018-Jan-21 09:30N 37°45' W 122°41'1 2.2
2018-Jan-21 09:00N 37°46' W 122°43'1 1.4
2018-Jan-21 08:30N 37°46' W 122°42'1 1.6
2018-Jan-21 08:00N 37°45' W 122°41'1 1.7
2018-Jan-21 07:30N 37°45' W 122°40'1 1.8
2018-Jan-21 07:00N 37°45' W 122°39'0 0.3
2018-Jan-21 06:31N 37°45' W 122°39'1 1.5
2018-Jan-21 06:01N 37°44' W 122°40'1 2.1
2018-Jan-21 05:30N 37°44' W 122°41'1 2.8
2018-Jan-21 05:00N 37°44' W 122°39'2 3.3
2018-Jan-21 04:30N 37°45' W 122°41'1 1.4
2018-Jan-21 04:00N 37°46' W 122°41'0 0.7
2018-Jan-21 03:30N 37°45' W 122°41'1 1.4
2018-Jan-21 03:01N 37°46' W 122°41'1 1.3
2018-Jan-21 02:30N 37°46' W 122°41'0 0.2
2018-Jan-21 02:00N 37°46' W 122°41'1 2.7
2018-Jan-21 01:30N 37°46' W 122°42'3 5.0
2018-Jan-21 01:00N 37°44' W 122°40'2 3.0
2018-Jan-21 00:30N 37°46' W 122°39'0 0.8
2018-Jan-21 00:00N 37°46' W 122°40'2 3.2
2018-Jan-20 23:30N 37°46' W 122°42'1 2.3
2018-Jan-20 23:00N 37°45' W 122°42'1 1.6
2018-Jan-20 22:30N 37°45' W 122°41'1 1.7
2018-Jan-20 22:00N 37°45' W 122°40'0 0.5
2018-Jan-20 21:30N 37°45' W 122°40'1 1.3
2018-Jan-20 21:00N 37°45' W 122°39'3 6.3
2018-Jan-20 20:30N 37°47' W 122°35'611.3
2018-Jan-20 20:01N 37°49' W 122°29'4 8.1
2018-Jan-20 19:30N 37°48' W 122°24'0 0.0
2018-Jan-20 19:00N 37°48' W 122°24'0 0.0
2018-Jan-20 18:30N 37°48' W 122°24'0 0.0
2018-Jan-20 18:01N 37°48' W 122°24'0 0.0
2018-Jan-20 17:30N 37°48' W 122°24'0 0.0
2018-Jan-20 17:00N 37°48' W 122°24'0 0.0
2018-Jan-20 16:30N 37°48' W 122°24'0 0.0
2018-Jan-20 16:00N 37°48' W 122°24'0 0.0
2018-Jan-20 15:30N 37°48' W 122°24'0 0.0
2018-Jan-20 15:00N 37°48' W 122°24'0 0.0
2018-Jan-20 14:30N 37°48' W 122°24'0 0.0
2018-Jan-20 14:00N 37°48' W 122°24'0 0.0
2018-Jan-20 13:30N 37°48' W 122°24'0 0.0
2018-Jan-20 13:00N 37°48' W 122°24'0 0.0
2018-Jan-20 12:30N 37°48' W 122°24'0 0.0
2018-Jan-20 12:00N 37°48' W 122°24'0 0.0
2018-Jan-20 11:31N 37°48' W 122°24'0 0.0
2018-Jan-20 11:00N 37°48' W 122°24'0 0.0
2018-Jan-20 10:30N 37°48' W 122°24'0 0.0
2018-Jan-20 10:00N 37°48' W 122°24'0 0.0
2018-Jan-20 09:30N 37°48' W 122°24'0 0.0
2018-Jan-20 09:00N 37°48' W 122°24'0 0.0
2018-Jan-20 08:30N 37°48' W 122°24'0 0.0
2018-Jan-20 08:00N 37°48' W 122°24'0 0.0
2018-Jan-20 07:30N 37°48' W 122°24'0 0.0
2018-Jan-20 07:00N 37°48' W 122°24'0 0.0
2018-Jan-20 06:30N 37°48' W 122°24'0 0.0
2018-Jan-20 06:00N 37°48' W 122°24'0 0.0
2018-Jan-20 05:30N 37°48' W 122°24'0 0.0
2018-Jan-20 05:00N 37°48' W 122°24'0 0.0
2018-Jan-20 04:30N 37°48' W 122°24'0 0.0
2018-Jan-20 04:01N 37°48' W 122°24'0 0.0
2018-Jan-20 03:31N 37°48' W 122°24'0 0.0
2018-Jan-20 03:00N 37°48' W 122°24'0 0.0
2018-Jan-20 02:30N 37°48' W 122°24'0 0.0
2018-Jan-20 02:00N 37°48' W 122°24'0 0.0
2018-Jan-20 01:30N 37°48' W 122°24'0 0.0
2018-Jan-20 00:59N 37°48' W 122°24'0 0.0
2018-Jan-20 00:30N 37°48' W 122°24'0 0.0
2018-Jan-20 00:00N 37°48' W 122°24'0 0.0
2018-Jan-19 23:30N 37°48' W 122°24'0 0.0
2018-Jan-19 23:00N 37°48' W 122°24'0 0.0
2018-Jan-19 22:30N 37°48' W 122°24'0 0.0
2018-Jan-19 22:00N 37°48' W 122°24'0 0.0
2018-Jan-19 21:30N 37°48' W 122°24'0 0.0
2018-Jan-19 20:59N 37°48' W 122°24'0 0.0
2018-Jan-19 20:30N 37°48' W 122°24'0 0.0
2018-Jan-19 20:00N 37°48' W 122°24'0 0.0
2018-Jan-19 19:30N 37°48' W 122°24'0 0.0
2018-Jan-19 19:00N 37°48' W 122°24'0 0.0
2018-Jan-19 18:30N 37°48' W 122°24'0 0.0
2018-Jan-19 18:00N 37°48' W 122°24'0 0.0
2018-Jan-19 17:30N 37°48' W 122°24'0 0.0
2018-Jan-19 17:00N 37°48' W 122°24'0 0.0
2018-Jan-19 16:30N 37°48' W 122°24'0 0.0
2018-Jan-19 16:00N 37°48' W 122°24'0 0.0
2018-Jan-19 15:30N 37°48' W 122°24'0 0.0
2018-Jan-19 15:00N 37°48' W 122°24'0 0.0
2018-Jan-19 14:30N 37°48' W 122°24'0 0.0
2018-Jan-19 14:00N 37°48' W 122°24'0 0.0
2018-Jan-19 13:31N 37°48' W 122°24'0 0.0
2018-Jan-19 13:00N 37°48' W 122°24'0 0.0
2018-Jan-19 12:30N 37°48' W 122°24'0 0.0
2018-Jan-19 12:00N 37°48' W 122°24'0 0.0
2018-Jan-19 11:30N 37°48' W 122°24'0 0.0
2018-Jan-19 11:00N 37°48' W 122°24'0 0.0
2018-Jan-19 10:30N 37°48' W 122°24'0 0.0
2018-Jan-19 10:00N 37°48' W 122°24'0 0.0
2018-Jan-19 09:30N 37°48' W 122°24'0 0.0
2018-Jan-19 09:00N 37°48' W 122°24'0 0.0
2018-Jan-19 08:29N 37°48' W 122°24'0 0.0
2018-Jan-19 08:00N 37°48' W 122°24'0 0.0
2018-Jan-19 07:30N 37°48' W 122°24'0 0.0
2018-Jan-19 07:00N 37°48' W 122°24'0 0.0
2018-Jan-19 06:31N 37°48' W 122°24'0 0.0
2018-Jan-19 06:00N 37°48' W 122°24'0 0.0
2018-Jan-19 05:29N 37°48' W 122°24'0 0.0
2018-Jan-19 05:00N 37°48' W 122°24'0 0.0
2018-Jan-19 04:30N 37°48' W 122°24'0 0.0
2018-Jan-19 04:00N 37°48' W 122°24'0 0.0
2018-Jan-19 03:30N 37°48' W 122°24'0 0.2
2018-Jan-19 03:00N 37°48' W 122°24'0 0.2
2018-Jan-19 02:30N 37°48' W 122°24'0 0.0
2018-Jan-19 02:01N 37°48' W 122°24'0 0.0
2018-Jan-19 01:30N 37°48' W 122°24'0 0.0
2018-Jan-19 01:01N 37°48' W 122°24'0 0.0
2018-Jan-19 00:30N 37°48' W 122°24'0 0.0
2018-Jan-19 00:00N 37°48' W 122°24'0 0.0
2018-Jan-18 23:30N 37°48' W 122°24'0 0.0
2018-Jan-18 23:00N 37°48' W 122°24'0 0.0
2018-Jan-18 22:30N 37°48' W 122°24'0 0.0
2018-Jan-18 22:00N 37°48' W 122°24'0 0.0
2018-Jan-18 21:30N 37°48' W 122°24'0 0.0
2018-Jan-18 21:00N 37°48' W 122°24'0 0.0
2018-Jan-18 20:29N 37°48' W 122°24'0 0.0
2018-Jan-18 20:00N 37°48' W 122°24'0 0.0
2018-Jan-18 19:30N 37°48' W 122°24'0 0.0
2018-Jan-18 19:00N 37°48' W 122°24'0 0.0
2018-Jan-18 18:30N 37°48' W 122°24'0 0.0
2018-Jan-18 18:00N 37°48' W 122°24'0 0.0
2018-Jan-18 17:30N 37°48' W 122°24'0 0.0
2018-Jan-18 17:00N 37°48' W 122°24'0 0.0
2018-Jan-18 16:30N 37°48' W 122°24'0 0.0
2018-Jan-18 16:00N 37°48' W 122°24'0 0.0
2018-Jan-18 15:30N 37°48' W 122°24'0 0.0
2018-Jan-18 15:01N 37°48' W 122°24'0 0.0
2018-Jan-18 14:30N 37°48' W 122°24'0 0.0
2018-Jan-18 14:00N 37°48' W 122°24'0 0.0
2018-Jan-18 13:30N 37°48' W 122°24'0 0.0
2018-Jan-18 13:00N 37°48' W 122°24'0 0.0
2018-Jan-18 12:30N 37°48' W 122°24'0 0.0
2018-Jan-18 12:00N 37°48' W 122°24'0 0.0
2018-Jan-18 11:30N 37°48' W 122°24'0 0.0
2018-Jan-18 11:00N 37°48' W 122°24'0 0.0
2018-Jan-18 10:30N 37°48' W 122°24'0 0.0
2018-Jan-18 10:01N 37°48' W 122°24'0 0.0
2018-Jan-18 09:30N 37°48' W 122°24'0 0.0
2018-Jan-18 09:00N 37°48' W 122°24'0 0.0
2018-Jan-18 08:29N 37°48' W 122°24'0 0.0
2018-Jan-18 08:00N 37°48' W 122°24'0 0.0
2018-Jan-18 07:31N 37°48' W 122°24'0 0.0
2018-Jan-18 07:00N 37°48' W 122°24'0 0.0
2018-Jan-18 06:30N 37°48' W 122°24'0 0.0
2018-Jan-18 06:00N 37°48' W 122°24'0 0.0
2018-Jan-18 05:31N 37°48' W 122°24'0 0.0
2018-Jan-18 05:00N 37°48' W 122°24'0 0.0
2018-Jan-18 04:30N 37°48' W 122°24'0 0.0
2018-Jan-18 04:00N 37°48' W 122°24'0 0.0
2018-Jan-18 03:30N 37°48' W 122°24'0 0.0
2018-Jan-18 03:00N 37°48' W 122°24'0 0.0
2018-Jan-18 02:30N 37°48' W 122°24'0 0.0
2018-Jan-18 02:00N 37°48' W 122°24'0 0.0
2018-Jan-18 01:30N 37°48' W 122°24'0 0.0
2018-Jan-18 01:00N 37°48' W 122°24'0 0.0
2018-Jan-18 00:00N 37°48' W 122°24'0 0.0
2018-Jan-17 23:57N 37°48' W 122°24'  
2018-Jan-12 15:00N 37°46' W 122°40'1 1.7
2018-Jan-12 14:30N 37°47' W 122°41'0 0.2
2018-Jan-12 14:00N 37°47' W 122°41'  

Dump ship's entire track history